Time;durP1;ratioP1;P1;durP2;ratioP2;P2;SDS_P1;SDS_P2;PMS_P1;PMS_P2;Temp;Humidity;BMP_temperature;BMP_pressure;BME280_temperature;BME280_humidity;BME280_pressure;Samples;Min_cycle;Max_cycle;Signal;HPM_P1;HPM_P2
2023/01/21 00:00:27;;;;;;;42.80;22.08;;;-1.00;99.90;;;;;;5037638;28;20572;-82
2023/01/21 00:02:52;;;;;;;53.08;24.00;;;-1.00;99.90;;;;;;5042095;28;20397;-82
2023/01/21 00:05:18;;;;;;;43.08;22.60;;;-1.10;99.90;;;;;;5031611;28;20033;-82
2023/01/21 00:07:43;;;;;;;42.47;21.80;;;-1.00;99.90;;;;;;5036691;28;20071;-82
2023/01/21 00:10:09;;;;;;;47.40;24.20;;;-1.10;99.90;;;;;;5039136;28;20025;-82
2023/01/21 00:12:36;;;;;;;52.30;26.88;;;-1.10;99.90;;;;;;5039191;28;20033;-82
2023/01/21 00:15:02;;;;;;;50.40;25.30;;;-1.10;99.90;;;;;;5034616;28;20029;-82
2023/01/21 00:17:32;;;;;;;46.47;25.52;;;-1.10;99.90;;;;;;5031258;28;20091;-82
2023/01/21 00:19:58;;;;;;;57.67;26.98;;;-1.10;99.90;;;;;;5022840;28;20457;-82
2023/01/21 00:22:23;;;;;;;48.50;25.80;;;-1.10;99.90;;;;;;5044228;28;20029;-82
2023/01/21 00:24:49;;;;;;;57.45;28.60;;;-1.10;99.90;;;;;;5038690;28;20030;-82
2023/01/21 00:27:14;;;;;;;54.90;28.08;;;-1.10;99.90;;;;;;5038661;28;20021;-82
2023/01/21 00:29:40;;;;;;;52.08;27.77;;;-1.10;99.90;;;;;;5044178;28;20032;-82
2023/01/21 00:32:05;;;;;;;64.03;31.88;;;-1.00;99.90;;;;;;5040768;28;20025;-82
2023/01/21 00:34:31;;;;;;;54.50;27.60;;;-1.10;99.90;;;;;;5045388;28;20036;-82
2023/01/21 00:36:56;;;;;;;64.30;29.10;;;-1.00;99.90;;;;;;5045828;28;20017;-82
2023/01/21 00:39:22;;;;;;;58.72;28.25;;;-1.00;99.90;;;;;;5039057;28;20037;-82
2023/01/21 00:41:48;;;;;;;65.70;31.27;;;-1.00;99.90;;;;;;5037904;28;20115;-82
2023/01/21 00:44:15;;;;;;;52.38;27.92;;;-1.00;99.90;;;;;;5040448;28;20521;-82
2023/01/21 00:46:40;;;;;;;64.97;32.83;;;-0.90;99.90;;;;;;5035613;28;20112;-82
2023/01/21 00:49:06;;;;;;;64.57;31.52;;;-0.90;99.90;;;;;;5035012;28;20093;-82
2023/01/21 00:51:31;;;;;;;66.32;30.63;;;-0.90;99.90;;;;;;5038546;28;20474;-82
2023/01/21 00:53:57;;;;;;;63.53;29.45;;;-0.90;99.90;;;;;;5030921;28;20022;-82
2023/01/21 00:56:23;;;;;;;61.25;31.45;;;-0.90;99.90;;;;;;5037105;28;20045;-82
2023/01/21 00:58:48;;;;;;;67.50;34.60;;;-0.80;99.90;;;;;;5037109;28;20120;-82
2023/01/21 01:01:18;;;;;;;58.05;31.92;;;-0.80;99.90;;;;;;5041053;28;20014;-82
2023/01/21 01:03:44;;;;;;;64.53;32.35;;;-0.80;99.90;;;;;;5032425;28;20033;-82
2023/01/21 01:06:15;;;;;;;62.33;30.50;;;-0.80;99.90;;;;;;5035528;28;20069;-82
2023/01/21 01:08:42;;;;;;;63.60;31.17;;;-0.70;99.90;;;;;;5028473;28;20026;-82
2023/01/21 01:11:09;;;;;;;63.35;31.45;;;-0.70;99.90;;;;;;5037915;28;20029;-82
2023/01/21 01:13:35;;;;;;;71.15;34.17;;;-0.60;99.90;;;;;;5042219;28;20131;-83
2023/01/21 01:16:01;;;;;;;66.30;32.38;;;-0.60;99.90;;;;;;5036703;28;20033;-82
2023/01/21 01:18:28;;;;;;;69.72;33.75;;;-0.60;99.90;;;;;;5031616;28;20021;-82
2023/01/21 01:20:55;;;;;;;60.95;31.85;;;-0.50;99.90;;;;;;5035756;28;20021;-82
2023/01/21 01:23:20;;;;;;;61.45;30.73;;;-0.50;99.90;;;;;;5031934;28;20036;-82
2023/01/21 01:26:00;;;;;;;70.28;34.35;;;-0.50;99.90;;;;;;5032162;28;20037;-82
2023/01/21 01:28:27;;;;;;;66.57;33.72;;;-0.50;99.90;;;;;;5032663;28;20395;-82
2023/01/21 01:30:53;;;;;;;57.78;30.17;;;-0.40;99.90;;;;;;5033550;28;20029;-82
2023/01/21 01:33:19;;;;;;;68.70;34.40;;;-0.40;99.90;;;;;;5028246;28;20041;-82
2023/01/21 01:35:46;;;;;;;81.95;36.78;;;-0.40;99.90;;;;;;5040277;28;20025;-83
2023/01/21 01:38:13;;;;;;;73.60;35.35;;;-0.30;99.90;;;;;;5041430;28;20245;-82
2023/01/21 01:40:39;;;;;;;74.13;35.80;;;-0.40;99.90;;;;;;5039293;28;20037;-82
2023/01/21 01:43:18;;;;;;;77.00;36.25;;;-0.30;99.90;;;;;;5037775;28;20029;-82
2023/01/21 01:45:44;;;;;;;75.15;35.33;;;-0.30;99.90;;;;;;5042808;28;20051;-83
2023/01/21 01:48:19;;;;;;;72.18;35.75;;;-0.40;99.90;;;;;;5033320;28;20418;-82
2023/01/21 01:50:55;;;;;;;84.63;35.25;;;-0.30;99.90;;;;;;5034264;28;20063;-82
2023/01/21 01:53:21;;;;;;;62.60;33.70;;;-0.40;99.90;;;;;;5022002;28;20037;-82
2023/01/21 01:55:48;;;;;;;59.85;31.63;;;-0.30;99.90;;;;;;5042798;28;20523;-82
2023/01/21 01:58:15;;;;;;;60.65;29.85;;;-0.30;99.90;;;;;;5036199;28;20433;-82
2023/01/21 02:00:41;;;;;;;64.85;31.80;;;-0.30;99.90;;;;;;5037963;28;20029;-82
2023/01/21 02:05:52;;;;;;;63.72;32.45;;;-0.40;99.90;;;;;;5032359;28;20035;-82
2023/01/21 02:08:19;;;;;;;54.17;30.55;;;-0.30;99.90;;;;;;5031296;28;20029;-82
2023/01/21 02:10:45;;;;;;;60.47;28.63;;;-0.30;99.90;;;;;;5038554;28;20037;-82
2023/01/21 02:13:11;;;;;;;63.80;32.88;;;-0.30;99.90;;;;;;5026131;28;20025;-82
2023/01/21 02:16:04;;;;;;;66.82;32.13;;;-0.30;99.90;;;;;;5037708;28;20030;-82
2023/01/21 02:18:45;;;;;;;71.30;35.13;;;-0.30;99.90;;;;;;5035819;28;20029;-82
2023/01/21 02:22:02;;;;;;;63.38;33.38;;;-0.30;99.90;;;;;;5035461;28;20052;-82
2023/01/21 02:25:05;;;;;;;78.70;35.13;;;-0.30;99.90;;;;;;5014978;28;20036;-82
2023/01/21 02:27:53;;;;;;;77.63;35.58;;;-0.30;99.90;;;;;;5023768;28;20041;-82
2023/01/21 02:30:56;;;;;;;70.15;32.92;;;-0.30;99.90;;;;;;5024575;28;20032;-82
2023/01/21 02:33:40;;;;;;;83.53;38.67;;;-0.30;99.90;;;;;;5030809;28;20025;-83
2023/01/21 02:36:25;;;;;;;78.78;36.33;;;-0.30;99.90;;;;;;5038120;28;20129;-82
2023/01/21 02:39:06;;;;;;;94.70;40.70;;;-0.30;99.90;;;;;;5029621;28;20044;-82
2023/01/21 02:41:45;;;;;;;97.38;41.25;;;-0.30;99.90;;;;;;5039165;28;20033;-82
2023/01/21 02:44:20;;;;;;;89.18;41.08;;;-0.40;99.90;;;;;;5044952;28;20024;-82
2023/01/21 02:46:57;;;;;;;83.90;40.40;;;-0.40;99.90;;;;;;5027382;28;20286;-82
2023/01/21 02:49:32;;;;;;;98.57;43.53;;;-0.40;99.90;;;;;;5035132;28;20119;-82
2023/01/21 02:51:57;;;;;;;98.05;44.20;;;-0.40;99.90;;;;;;5027041;28;20029;-82
2023/01/21 02:54:54;;;;;;;96.93;43.22;;;-0.40;99.90;;;;;;5028344;28;20029;-83
2023/01/21 02:57:27;;;;;;;102.82;44.47;;;-0.40;99.90;;;;;;5031524;28;20041;-82
2023/01/21 02:59:55;;;;;;;103.28;45.22;;;-0.40;99.90;;;;;;5026759;28;20045;-82
2023/01/21 03:02:29;;;;;;;106.85;44.65;;;-0.50;99.90;;;;;;5031472;28;20030;-83
2023/01/21 03:05:08;;;;;;;112.47;43.42;;;-0.40;99.90;;;;;;5034963;28;20032;-82
2023/01/21 03:07:38;;;;;;;152.50;49.90;;;-0.50;99.90;;;;;;5031240;28;20112;-82
2023/01/21 03:10:15;;;;;;;101.47;45.15;;;-0.50;99.90;;;;;;5025257;28;20075;-82
2023/01/21 03:12:45;;;;;;;127.75;49.45;;;-0.50;99.90;;;;;;5032067;28;20473;-82
2023/01/21 03:18:22;;;;;;;130.70;54.03;;;-0.60;99.90;;;;;;5036287;28;20088;-82
2023/01/21 03:20:52;;;;;;;147.75;55.58;;;-0.60;99.90;;;;;;5036511;28;20502;-82
2023/01/21 03:23:37;;;;;;;113.72;50.53;;;-0.60;99.90;;;;;;5040995;28;20048;-82
2023/01/21 03:26:05;;;;;;;126.87;52.93;;;-0.60;99.90;;;;;;5033648;28;20029;-82
2023/01/21 03:28:35;;;;;;;127.35;52.53;;;-0.60;99.90;;;;;;5041003;28;21117;-82
2023/01/21 03:31:09;;;;;;;149.27;56.88;;;-0.60;99.90;;;;;;5047529;28;20091;-82
2023/01/21 03:33:39;;;;;;;141.55;55.63;;;-0.60;99.90;;;;;;5040934;28;20029;-82
2023/01/21 03:36:15;;;;;;;152.25;60.75;;;-0.70;99.90;;;;;;5030705;28;20037;-82
2023/01/21 03:38:46;;;;;;;130.63;52.33;;;-0.60;99.90;;;;;;5039331;28;20072;-82
2023/01/21 03:41:32;;;;;;;125.80;54.08;;;-0.60;99.90;;;;;;5044650;28;20037;-82
2023/01/21 03:43:58;;;;;;;125.90;53.30;;;-0.60;99.90;;;;;;5037688;28;20590;-82
2023/01/21 03:46:32;;;;;;;132.95;55.00;;;-0.60;99.90;;;;;;5033385;28;20047;-83
2023/01/21 03:49:21;;;;;;;139.07;55.38;;;-0.60;99.90;;;;;;5031488;28;20041;-82
2023/01/21 03:51:56;;;;;;;129.82;54.63;;;-0.60;99.90;;;;;;5019757;28;20026;-82
2023/01/21 03:54:25;;;;;;;120.20;52.85;;;-0.50;99.90;;;;;;5031641;28;20033;-82
2023/01/21 03:56:51;;;;;;;121.70;52.53;;;-0.50;99.90;;;;;;5020625;28;20052;-82
2023/01/21 03:59:16;;;;;;;117.82;52.75;;;-0.60;99.90;;;;;;5027361;28;20486;-82
2023/01/21 04:01:42;;;;;;;122.80;51.33;;;-0.60;99.90;;;;;;5036502;28;20013;-83
2023/01/21 04:04:09;;;;;;;128.32;51.40;;;-0.60;99.90;;;;;;5030789;28;20025;-82
2023/01/21 04:06:35;;;;;;;110.18;49.83;;;-0.60;99.90;;;;;;5036384;28;20036;-82
2023/01/21 04:09:02;;;;;;;138.65;57.65;;;-0.60;99.90;;;;;;5032561;28;20025;-82
2023/01/21 04:11:28;;;;;;;119.82;51.45;;;-0.50;99.90;;;;;;5036210;28;20030;-82
2023/01/21 04:13:53;;;;;;;131.45;53.35;;;-0.50;99.90;;;;;;5036055;28;20052;-82
2023/01/21 04:16:19;;;;;;;128.60;53.13;;;-0.50;99.90;;;;;;5040592;28;20368;-82
2023/01/21 04:18:46;;;;;;;133.05;52.70;;;-0.50;99.90;;;;;;5037542;28;20058;-83
2023/01/21 04:21:12;;;;;;;114.70;51.60;;;-0.50;99.90;;;;;;5036660;28;20033;-83
2023/01/21 04:23:38;;;;;;;101.78;45.15;;;-0.50;99.90;;;;;;5040290;28;20045;-82
2023/01/21 04:26:03;;;;;;;116.72;52.10;;;-0.60;99.90;;;;;;5035427;28;20037;-83
2023/01/21 04:28:29;;;;;;;118.00;52.33;;;-0.60;99.90;;;;;;5037868;28;20033;-83
2023/01/21 04:31:03;;;;;;;111.25;48.22;;;-0.60;99.90;;;;;;5037857;28;20509;-83
2023/01/21 04:33:29;;;;;;;107.75;48.22;;;-0.60;99.90;;;;;;5031900;28;20036;-83
2023/01/21 04:35:59;;;;;;;105.05;43.72;;;-0.60;99.90;;;;;;5032665;28;20104;-83
2023/01/21 04:38:24;;;;;;;84.95;38.45;;;-0.50;99.90;;;;;;5040119;28;20030;-83
2023/01/21 04:40:50;;;;;;;78.97;34.35;;;-0.60;99.90;;;;;;5032356;28;20029;-82
2023/01/21 04:43:16;;;;;;;78.25;33.60;;;-0.60;99.90;;;;;;5033585;28;20021;-82
2023/01/21 04:45:41;;;;;;;74.40;33.70;;;-0.60;99.90;;;;;;5032621;28;20143;-86
2023/01/21 04:48:07;;;;;;;85.30;38.45;;;-0.60;99.90;;;;;;5027023;28;20089;-82
2023/01/21 04:50:32;;;;;;;80.15;35.50;;;-0.60;99.90;;;;;;5038436;28;20477;-82
2023/01/21 04:52:58;;;;;;;74.28;33.72;;;-0.60;99.90;;;;;;5033839;28;20029;-82
2023/01/21 04:55:23;;;;;;;81.95;36.15;;;-0.60;99.90;;;;;;5030924;28;20112;-82
2023/01/21 04:57:49;;;;;;;81.65;37.60;;;-0.60;99.90;;;;;;5033397;28;20041;-82
2023/01/21 05:00:15;;;;;;;84.60;35.65;;;-0.60;99.90;;;;;;5033051;28;20041;-82
2023/01/21 05:02:41;;;;;;;87.80;37.97;;;-0.60;99.90;;;;;;5033312;28;20104;-83
2023/01/21 05:05:06;;;;;;;84.43;37.78;;;-0.60;99.90;;;;;;5034232;28;20117;-82
2023/01/21 05:07:33;;;;;;;96.70;40.95;;;-0.70;99.90;;;;;;5039146;28;20021;-82
2023/01/21 05:09:58;;;;;;;70.82;35.45;;;-0.60;99.90;;;;;;5030125;28;20033;-82
2023/01/21 05:12:24;;;;;;;78.25;34.22;;;-0.60;99.90;;;;;;5036845;28;20102;-82
2023/01/21 05:14:53;;;;;;;76.78;33.75;;;-0.60;99.90;;;;;;5026685;28;20477;-82
2023/01/21 05:17:19;;;;;;;70.38;32.55;;;-0.60;99.90;;;;;;5024848;28;20041;-82
2023/01/21 05:19:45;;;;;;;81.53;36.22;;;-0.70;99.90;;;;;;5028729;28;20069;-82
2023/01/21 05:22:10;;;;;;;73.85;32.90;;;-0.70;99.90;;;;;;5031937;28;20032;-82
2023/01/21 05:24:36;;;;;;;73.53;34.67;;;-0.60;99.90;;;;;;5032841;28;20029;-82
2023/01/21 05:27:14;;;;;;;65.72;32.22;;;-0.70;99.90;;;;;;5031291;28;20040;-83
2023/01/21 05:29:40;;;;;;;75.18;32.40;;;-0.60;99.90;;;;;;5031318;28;20057;-83
2023/01/21 05:32:06;;;;;;;72.35;32.35;;;-0.70;99.90;;;;;;5032363;28;20045;-82
2023/01/21 05:34:32;;;;;;;74.50;33.47;;;-0.70;99.90;;;;;;5032694;28;20037;-82
2023/01/21 05:36:57;;;;;;;73.75;35.90;;;-0.70;99.90;;;;;;5031492;28;20026;-82
2023/01/21 05:39:23;;;;;;;83.88;34.85;;;-0.70;99.90;;;;;;5033823;28;20033;-83
2023/01/21 05:41:48;;;;;;;72.10;34.42;;;-0.60;99.90;;;;;;5035441;28;20071;-82
2023/01/21 05:44:14;;;;;;;85.93;35.95;;;-0.60;99.90;;;;;;5031220;28;20132;-83
2023/01/21 05:46:39;;;;;;;76.22;34.83;;;-0.60;99.90;;;;;;5035686;28;20037;-83
2023/01/21 05:49:05;;;;;;;78.95;31.92;;;-0.60;99.90;;;;;;5039611;28;20484;-82
2023/01/21 05:51:31;;;;;;;76.68;33.10;;;-0.70;99.90;;;;;;5030642;28;20451;-82
2023/01/21 05:53:56;;;;;;;73.03;30.63;;;-0.60;99.90;;;;;;5030817;28;20390;-83
2023/01/21 05:56:22;;;;;;;73.90;31.55;;;-0.60;99.90;;;;;;5035093;28;20029;-82
2023/01/21 05:58:48;;;;;;;65.63;28.80;;;-0.50;99.90;;;;;;5029994;28;20086;-83
2023/01/21 06:01:14;;;;;;;73.28;30.77;;;-0.60;99.90;;;;;;5029706;28;20064;-82
2023/01/21 06:03:39;;;;;;;80.97;32.30;;;-0.60;99.90;;;;;;5034764;28;20084;-82
2023/01/21 06:06:06;;;;;;;76.90;30.67;;;-0.70;99.90;;;;;;5039235;28;20406;-82
2023/01/21 06:08:33;;;;;;;76.93;31.52;;;-0.70;99.90;;;;;;5030295;28;20063;-83
2023/01/21 06:10:58;;;;;;;70.47;31.38;;;-0.70;99.90;;;;;;5035910;28;20025;-82
2023/01/21 06:13:24;;;;;;;63.92;29.13;;;-0.70;99.90;;;;;;5037700;28;20367;-83
2023/01/21 06:15:54;;;;;;;70.50;30.45;;;-0.70;99.90;;;;;;5037698;28;20025;-83
2023/01/21 06:18:20;;;;;;;76.30;31.27;;;-0.70;99.90;;;;;;5036789;28;20028;-83
2023/01/21 06:20:46;;;;;;;70.88;31.45;;;-0.70;99.90;;;;;;5037693;28;20053;-83
2023/01/21 06:23:12;;;;;;;66.25;28.88;;;-0.60;99.90;;;;;;5027134;28;20045;-82
2023/01/21 06:25:37;;;;;;;69.88;30.10;;;-0.70;99.90;;;;;;5037556;28;20087;-83
2023/01/21 06:28:12;;;;;;;67.20;28.98;;;-0.70;99.90;;;;;;5034090;28;20053;-83
2023/01/21 06:30:38;;;;;;;69.85;30.52;;;-0.70;99.90;;;;;;5024836;28;20107;-83
2023/01/21 06:33:04;;;;;;;66.68;27.98;;;-0.70;99.90;;;;;;5029415;28;20676;-83
2023/01/21 06:35:30;;;;;;;62.42;26.77;;;-0.70;99.90;;;;;;5038319;28;20067;-83
2023/01/21 06:37:55;;;;;;;53.55;23.40;;;-0.70;99.90;;;;;;5035516;28;20035;-82
2023/01/21 06:40:21;;;;;;;63.50;26.40;;;-0.70;99.90;;;;;;5030299;28;20036;-83
2023/01/21 06:42:48;;;;;;;55.85;24.20;;;-0.80;99.90;;;;;;5024504;28;20485;-82
2023/01/21 06:45:14;;;;;;;58.85;24.92;;;-0.80;99.90;;;;;;5028859;28;20057;-83
2023/01/21 06:47:44;;;;;;;60.15;24.08;;;-0.80;99.90;;;;;;5033084;28;20032;-82
2023/01/21 06:50:11;;;;;;;64.05;26.48;;;-0.80;99.90;;;;;;5028140;28;20587;-82
2023/01/21 06:52:38;;;;;;;69.93;28.45;;;-0.80;99.90;;;;;;5028263;28;20033;-82
2023/01/21 06:55:04;;;;;;;63.95;26.17;;;-0.80;99.90;;;;;;5032246;28;20029;-82
2023/01/21 06:57:30;;;;;;;81.03;30.65;;;-0.80;99.90;;;;;;5019838;28;20055;-83
2023/01/21 06:59:55;;;;;;;70.05;27.35;;;-0.90;99.90;;;;;;5030056;28;20044;-83
2023/01/21 07:02:21;;;;;;;70.85;29.35;;;-0.90;99.90;;;;;;5028448;28;20028;-83
2023/01/21 07:04:49;;;;;;;72.97;30.42;;;-0.90;99.90;;;;;;5028724;28;20022;-82
2023/01/21 07:07:14;;;;;;;70.40;31.13;;;-0.90;99.90;;;;;;5040141;28;20318;-83
2023/01/21 07:09:40;;;;;;;64.85;29.58;;;-0.90;99.90;;;;;;5038076;28;20111;-83
2023/01/21 07:12:06;;;;;;;79.35;33.28;;;-0.90;99.90;;;;;;5031928;28;20025;-82
2023/01/21 07:14:31;;;;;;;77.68;33.28;;;-0.90;99.90;;;;;;5045800;28;20029;-83
2023/01/21 07:16:57;;;;;;;82.35;32.97;;;-0.90;99.90;;;;;;5033729;28;20057;-83
2023/01/21 07:19:22;;;;;;;74.45;31.25;;;-0.90;99.90;;;;;;5028469;28;20456;-83
2023/01/21 07:21:48;;;;;;;76.00;30.73;;;-0.90;99.90;;;;;;5030859;28;20435;-82
2023/01/21 07:24:13;;;;;;;75.47;30.85;;;-1.00;99.90;;;;;;5031060;28;20079;-82
2023/01/21 07:26:40;;;;;;;82.88;32.47;;;-1.00;99.90;;;;;;5032764;28;20029;-83
2023/01/21 07:29:06;;;;;;;74.45;30.40;;;-0.90;99.90;;;;;;5039211;28;20045;-82
2023/01/21 07:31:32;;;;;;;78.72;31.13;;;-1.00;99.90;;;;;;5023641;28;20033;-83
2023/01/21 07:33:58;;;;;;;79.03;30.17;;;-1.00;99.90;;;;;;5037151;28;20050;-83
2023/01/21 07:36:23;;;;;;;84.15;32.08;;;-1.00;99.90;;;;;;5030217;28;20021;-83
2023/01/21 07:38:49;;;;;;;74.70;31.73;;;-0.90;99.90;;;;;;5038489;28;20084;-82
2023/01/21 07:41:14;;;;;;;73.90;30.42;;;-1.00;99.90;;;;;;5029209;28;20526;-83
2023/01/21 07:43:40;;;;;;;86.35;32.20;;;-1.10;99.90;;;;;;5030364;28;20068;-83
2023/01/21 07:46:06;;;;;;;81.57;32.33;;;-1.00;99.90;;;;;;5029238;28;20430;-84
2023/01/21 07:48:31;;;;;;;77.97;32.50;;;-1.10;99.90;;;;;;5031772;28;20413;-83
2023/01/21 07:50:57;;;;;;;73.43;28.10;;;-1.10;99.90;;;;;;5032482;28;20029;-83
2023/01/21 07:53:23;;;;;;;89.95;37.00;;;-1.10;99.90;;;;;;5031057;28;20021;-83
2023/01/21 07:55:49;;;;;;;68.85;28.60;;;-1.10;99.90;;;;;;5033796;28;20392;-83
2023/01/21 07:58:14;;;;;;;73.63;28.25;;;-1.10;99.90;;;;;;5035687;28;20419;-83
2023/01/21 08:00:40;;;;;;;73.32;31.05;;;-1.10;99.90;;;;;;5035499;28;20135;-83
2023/01/21 08:03:05;;;;;;;74.63;29.80;;;-1.10;99.90;;;;;;5028451;28;20373;-83
2023/01/21 08:05:34;;;;;;;78.10;29.90;;;-1.00;99.90;;;;;;5019719;28;20068;-83
2023/01/21 08:07:59;;;;;;;77.68;28.75;;;-1.00;99.90;;;;;;5026202;28;20464;-83
2023/01/21 08:10:25;;;;;;;72.13;30.23;;;-1.10;99.90;;;;;;5024015;28;20036;-83
2023/01/21 08:12:50;;;;;;;72.85;30.08;;;-1.00;99.90;;;;;;5032502;28;20051;-83
2023/01/21 08:15:58;;;;;;;81.93;30.83;;;-1.10;99.90;;;;;;5019967;28;20032;-83
2023/01/21 08:18:23;;;;;;;80.65;32.40;;;-1.10;99.90;;;;;;5033431;28;20036;-82
2023/01/21 08:20:56;;;;;;;70.53;28.52;;;-1.10;99.90;;;;;;5037694;28;20033;-83
2023/01/21 08:23:23;;;;;;;81.95;27.48;;;-1.10;99.90;;;;;;5044241;28;20466;-83
2023/01/21 08:25:49;;;;;;;69.40;28.05;;;-1.10;99.90;;;;;;5034853;28;20063;-83
2023/01/21 08:28:15;;;;;;;78.22;30.73;;;-1.10;99.90;;;;;;5037157;28;20116;-83
2023/01/21 08:30:40;;;;;;;74.68;27.63;;;-1.10;99.90;;;;;;5045362;28;20478;-83
2023/01/21 08:33:06;;;;;;;73.55;29.73;;;-1.10;99.90;;;;;;5044197;28;20025;-83
2023/01/21 08:35:33;;;;;;;74.07;27.92;;;-1.10;99.90;;;;;;5049411;28;20072;-83
2023/01/21 08:38:00;;;;;;;79.85;30.60;;;-1.20;99.90;;;;;;5030901;28;20036;-83
2023/01/21 08:40:26;;;;;;;71.75;26.40;;;-1.20;99.90;;;;;;5040169;28;20524;-82
2023/01/21 08:42:57;;;;;;;70.35;27.98;;;-1.10;99.90;;;;;;5050070;28;20078;-83
2023/01/21 08:45:23;;;;;;;82.90;29.65;;;-1.20;99.90;;;;;;5049722;28;20025;-82
2023/01/21 08:47:48;;;;;;;79.35;30.27;;;-1.20;99.90;;;;;;5043536;28;20044;-83
2023/01/21 08:50:14;;;;;;;80.25;28.10;;;-1.20;99.90;;;;;;5045305;28;20108;-83
2023/01/21 08:52:40;;;;;;;75.95;29.50;;;-1.20;99.90;;;;;;5039944;28;20033;-82
2023/01/21 08:55:06;;;;;;;74.00;28.50;;;-1.20;99.90;;;;;;5040122;28;20359;-83
2023/01/21 08:57:31;;;;;;;76.30;29.17;;;-1.20;99.90;;;;;;5047687;28;20457;-83
2023/01/21 09:00:00;;;;;;;69.80;28.10;;;-1.20;99.90;;;;;;5039145;28;20044;-83
2023/01/21 09:02:25;;;;;;;84.03;29.60;;;-1.10;99.90;;;;;;5020737;28;20083;-82
2023/01/21 09:04:51;;;;;;;62.22;26.35;;;-1.20;99.90;;;;;;5034056;28;20037;-83
2023/01/21 09:07:17;;;;;;;64.68;27.08;;;-1.10;99.90;;;;;;5038556;28;20504;-83
2023/01/21 09:09:42;;;;;;;71.78;28.73;;;-1.10;99.90;;;;;;5038218;28;20036;-82
2023/01/21 09:12:08;;;;;;;67.57;26.95;;;-1.10;99.90;;;;;;5038618;28;20029;-83
2023/01/21 09:14:34;;;;;;;64.60;25.27;;;-1.00;99.90;;;;;;5030369;28;20041;-83
2023/01/21 09:16:59;;;;;;;72.80;26.27;;;-1.10;99.90;;;;;;5039405;28;20505;-83
2023/01/21 09:19:26;;;;;;;59.92;24.05;;;-1.00;99.90;;;;;;5039390;28;20393;-83
2023/01/21 09:21:53;;;;;;;65.05;25.23;;;-1.00;99.90;;;;;;5034569;28;20040;-83
2023/01/21 09:24:19;;;;;;;76.38;26.50;;;-1.00;99.90;;;;;;5039107;28;20029;-84
2023/01/21 09:26:44;;;;;;;62.03;26.02;;;-1.00;99.90;;;;;;5037953;28;20203;-83
2023/01/21 09:29:10;;;;;;;68.82;25.08;;;-1.10;99.90;;;;;;5037947;28;20032;-83
2023/01/21 09:31:36;;;;;;;69.50;27.20;;;-1.00;99.90;;;;;;5038531;28;20033;-83
2023/01/21 09:34:04;;;;;;;60.03;25.08;;;-1.00;99.90;;;;;;5035404;28;20032;-83
2023/01/21 09:36:32;;;;;;;65.68;28.77;;;-0.90;99.90;;;;;;5036727;28;20662;-83
2023/01/21 09:38:59;;;;;;;55.22;24.00;;;-0.90;99.90;;;;;;5036213;28;20148;-83
2023/01/21 09:41:40;;;;;;;58.50;25.48;;;-0.80;99.90;;;;;;5031455;28;20053;-83
2023/01/21 09:44:53;;;;;;;56.50;22.48;;;-0.80;99.90;;;;;;5038456;28;20029;-83
2023/01/21 09:47:24;;;;;;;63.80;22.98;;;-0.90;99.90;;;;;;5028477;28;20038;-83
2023/01/21 09:50:03;;;;;;;55.08;23.75;;;-0.80;99.90;;;;;;5036609;28;20025;-83
2023/01/21 09:52:44;;;;;;;69.72;25.15;;;-0.80;99.90;;;;;;5032861;28;20519;-83
2023/01/21 09:55:26;;;;;;;57.97;22.10;;;-0.80;99.90;;;;;;5039486;28;20025;-83
2023/01/21 09:58:00;;;;;;;53.20;22.13;;;-0.80;99.90;;;;;;5031910;28;20057;-83
2023/01/21 10:00:46;;;;;;;57.35;22.02;;;-0.70;99.90;;;;;;5022840;28;20045;-83
2023/01/21 10:03:14;;;;;;;64.05;23.38;;;-0.70;99.90;;;;;;5034036;28;20496;-82
2023/01/21 10:05:52;;;;;;;52.25;21.50;;;-0.70;99.90;;;;;;5043839;28;20037;-82
2023/01/21 10:08:37;;;;;;;57.55;22.58;;;-0.70;99.90;;;;;;5044663;28;20045;-83
2023/01/21 10:11:21;;;;;;;52.35;23.63;;;-0.60;99.90;;;;;;5028970;28;20513;-83
2023/01/21 10:14:17;;;;;;;52.17;20.88;;;-0.60;99.90;;;;;;5047574;28;20017;-83
2023/01/21 10:17:12;;;;;;;48.85;20.50;;;-0.50;99.90;;;;;;5037297;28;20489;-83
2023/01/21 10:19:44;;;;;;;45.67;18.63;;;-0.60;99.90;;;;;;5031991;28;20052;-82
2023/01/21 10:22:21;;;;;;;46.70;20.88;;;-0.50;99.90;;;;;;5042522;28;20039;-82
2023/01/21 10:25:29;;;;;;;;;;;-0.40;99.90;;;;;;5075008;28;20419;-83
2023/01/21 10:28:01;;;;;;;40.78;18.02;;;-0.40;99.90;;;;;;5084672;28;19987;-83
2023/01/21 10:30:40;;;;;;;46.72;20.48;;;-0.40;99.90;;;;;;5082728;28;20254;-84
2023/01/21 10:33:16;;;;;;;38.72;18.08;;;-0.40;99.90;;;;;;5074629;28;20037;-84
2023/01/21 10:36:04;;;;;;;41.72;18.75;;;-0.30;99.90;;;;;;5084307;28;20302;-84
2023/01/21 10:38:40;;;;;;;33.58;17.48;;;-0.30;99.90;;;;;;5083396;28;20036;-84
2023/01/21 10:41:33;;;;;;;44.85;19.88;;;-0.20;99.90;;;;;;5079984;28;20029;-84
2023/01/21 10:44:24;;;;;;;41.15;18.73;;;-0.20;99.90;;;;;;5078454;28;20058;-84
2023/01/21 10:47:06;;;;;;;37.08;18.20;;;-0.20;99.90;;;;;;5067818;28;20465;-84
2023/01/21 10:50:29;;;;;;;32.50;17.00;;;-0.20;99.90;;;;;;5083849;28;20154;-84
2023/01/21 10:53:31;;;;;;;37.70;17.55;;;-0.10;99.90;;;;;;5040715;28;20036;-82
2023/01/21 10:56:08;;;;;;;36.78;16.67;;;-0.20;99.90;;;;;;5005104;28;20136;-83
2023/01/21 10:58:40;;;;;;;39.38;17.20;;;-0.10;99.90;;;;;;5072015;28;20037;-84
2023/01/21 11:01:14;;;;;;;34.85;16.88;;;-0.10;99.90;;;;;;5073569;28;20029;-83
2023/01/21 11:03:49;;;;;;;36.08;16.38;;;0.10;99.90;;;;;;5076755;28;20037;-84
2023/01/21 11:06:18;;;;;;;41.10;20.85;;;0.00;99.90;;;;;;5084935;28;20509;-83
2023/01/21 11:08:48;;;;;;;42.47;20.20;;;0.10;99.90;;;;;;5084328;28;20036;-82
2023/01/21 11:11:25;;;;;;;42.78;17.77;;;0.00;99.90;;;;;;5082848;28;20036;-83
2023/01/21 11:13:50;;;;;;;44.15;19.48;;;-0.10;99.90;;;;;;5074358;28;20396;-83
2023/01/21 11:16:42;;;;;;;38.53;18.60;;;0.00;99.90;;;;;;5074436;28;20032;-83
2023/01/21 11:19:12;;;;;;;42.13;19.67;;;0.00;99.90;;;;;;5065748;28;20024;-82
2023/01/21 11:21:38;;;;;;;41.72;18.73;;;0.00;99.90;;;;;;5069136;28;20028;-83
2023/01/21 11:24:23;;;;;;;42.58;19.65;;;0.00;99.90;;;;;;5073990;28;20052;-83
2023/01/21 11:26:54;;;;;;;39.13;19.67;;;0.00;99.90;;;;;;5069891;28;20035;-83
2023/01/21 11:29:21;;;;;;;52.22;21.20;;;0.00;99.90;;;;;;5076826;28;20477;-84
2023/01/21 11:32:02;;;;;;;42.83;19.67;;;0.00;99.90;;;;;;5070556;28;20120;-83
2023/01/21 11:34:28;;;;;;;43.42;18.83;;;0.10;99.90;;;;;;5067302;28;20568;-83
2023/01/21 11:37:04;;;;;;;35.60;18.40;;;0.10;99.90;;;;;;5057382;28;20033;-83
2023/01/21 11:39:40;;;;;;;38.33;18.20;;;0.10;99.90;;;;;;5059736;28;20123;-83
2023/01/21 11:42:13;;;;;;;42.38;18.83;;;0.10;99.90;;;;;;5061154;28;20401;-83
2023/01/21 11:45:03;;;;;;;42.80;18.10;;;0.20;99.90;;;;;;5055854;28;20517;-83
2023/01/21 11:47:47;;;;;;;41.53;19.52;;;0.10;99.90;;;;;;5060646;28;20094;-83
2023/01/21 11:50:33;;;;;;;42.30;20.45;;;0.20;99.90;;;;;;5057997;28;20156;-83
2023/01/21 11:53:07;;;;;;;46.53;21.23;;;0.20;99.90;;;;;;5052481;28;20029;-83
2023/01/21 11:55:43;;;;;;;42.50;20.65;;;0.20;99.90;;;;;;5060039;28;20047;-83
2023/01/21 11:58:19;;;;;;;40.13;20.25;;;0.30;99.90;;;;;;5054936;28;20020;-82
2023/01/21 12:00:47;;;;;;;47.60;20.38;;;0.20;99.90;;;;;;5062823;28;20025;-83
2023/01/21 12:03:18;;;;;;;48.05;20.52;;;0.20;99.90;;;;;;5056028;28;20115;-84
2023/01/21 12:05:48;;;;;;;50.97;22.48;;;0.30;99.90;;;;;;5051302;28;20048;-84
2023/01/21 12:08:20;;;;;;;53.85;21.30;;;0.30;99.90;;;;;;5061118;28;20140;-83
2023/01/21 12:10:46;;;;;;;46.60;23.73;;;0.30;99.90;;;;;;5069985;28;20401;-83
2023/01/21 12:13:23;;;;;;;43.45;21.40;;;0.40;99.90;;;;;;5067931;28;20024;-83
2023/01/21 12:16:04;;;;;;;46.03;22.30;;;0.40;99.90;;;;;;5069299;28;20115;-84
2023/01/21 12:18:48;;;;;;;41.40;19.52;;;0.40;99.90;;;;;;5068503;28;20017;-83
2023/01/21 12:21:45;;;;;;;49.88;23.98;;;0.40;99.90;;;;;;5069733;28;20111;-84
2023/01/21 12:24:35;;;;;;;52.25;24.20;;;0.40;99.90;;;;;;5047539;28;20041;-83
2023/01/21 12:27:19;;;;;;;45.33;22.23;;;0.40;99.90;;;;;;5060990;28;20489;-83
2023/01/21 12:30:16;;;;;;;47.72;22.80;;;0.40;99.90;;;;;;5058814;28;20020;-83
2023/01/21 12:32:43;;;;;;;;;;;0.40;99.90;;;;;;5057734;28;20032;-83
2023/01/21 12:35:15;;;;;;;49.20;22.13;;;0.40;99.90;;;;;;5069391;28;19915;-83
2023/01/21 12:37:41;;;;;;;47.67;20.83;;;0.50;99.90;;;;;;5047185;28;20032;-83
2023/01/21 12:40:28;;;;;;;51.67;24.38;;;0.50;99.90;;;;;;5067554;28;20079;-83
2023/01/21 12:43:02;;;;;;;50.67;22.70;;;0.50;99.90;;;;;;5068459;28;20063;-84
2023/01/21 12:45:35;;;;;;;51.47;22.38;;;0.50;99.90;;;;;;5058655;28;20050;-83
2023/01/21 12:48:14;;;;;;;49.92;23.58;;;0.60;99.90;;;;;;5068240;28;20039;-83
2023/01/21 12:50:46;;;;;;;46.53;21.75;;;0.60;99.90;;;;;;5053694;28;20032;-83
2023/01/21 12:53:27;;;;;;;46.72;22.83;;;0.60;99.90;;;;;;5064645;28;20032;-83